Temp: 11.7°C   Baro: 1029.0mb
  Wind: 0.0mph   Dir: NE (51°)
  Rain: 0.0mm (0.0mm/hr)
  Solar: 0W/m2  Hum: 81%
 
Bath Spa Weather Historical Data
Daily Summary for June 14, 2019 Units:  Metric    English   Both
Next Day »
Daily Weekly Monthly Yearly Custom
  High: Low: Average:
Temperature: 16.8 °C 10.9 °C 13.9 °C
Dew Point: 12.0 °C 8.1 °C 10.3 °C
Humidity: 92% 64% 79%
Wind Speed: 38.6km/h 0.0km/h 9.5km/h
Wind Gust: 38.6km/h - -
Wind direction- - SSW
Pressure: 1010.7 hPa 1006.3 hPa -
Precipitation: 1.0 mm    
Historical Graphs
 
 
Tabular Data for June 14, 2019
Time Temperature Dew Point Pressure Wind direction Wind Speed Wind Gust Humidity Rainfall Rate (Hourly) solar
06:14 11.4 °C 10.1 °C 1006.3 hPa South 6.4 km/h 11.3 km/h 92% 0.0 mm 23.00 W/m2
06:19 11.4 °C 10.1 °C 1006.3 hPa SW 4.7 km/h 11.3 km/h 92% 0.0 mm 25.00 W/m2
06:24 11.4 °C 10.1 °C 1006.3 hPa SSW 3.2 km/h 12.9 km/h 92% 0.0 mm 25.00 W/m2
06:29 11.4 °C 10.1 °C 1006.3 hPa SSW 3.2 km/h 11.3 km/h 92% 0.0 mm 26.00 W/m2
06:34 11.5 °C 10.2 °C 1006.3 hPa SSW 11.1 km/h 14.5 km/h 92% 0.0 mm 23.00 W/m2
06:39 11.5 °C 10.2 °C 1006.7 hPa SSW 7.9 km/h 14.5 km/h 92% 0.0 mm 23.00 W/m2
06:44 11.5 °C 10.2 °C 1006.7 hPa SW 4.7 km/h 11.3 km/h 92% 0.0 mm 21.00 W/m2
06:49 11.5 °C 10.2 °C 1006.7 hPa SSW 6.4 km/h 16.1 km/h 92% 0.0 mm 23.00 W/m2
06:54 11.5 °C 10.2 °C 1006.7 hPa SW 7.9 km/h 11.3 km/h 92% 0.0 mm 25.00 W/m2
06:59 11.6 °C 10.3 °C 1006.7 hPa South 4.7 km/h 9.7 km/h 92% 0.0 mm 32.00 W/m2
07:04 11.6 °C 10.3 °C 1006.7 hPa SW 1.4 km/h 11.3 km/h 92% 0.0 mm 37.00 W/m2
07:09 11.6 °C 10.2 °C 1006.7 hPa SSW 7.9 km/h 11.3 km/h 91% 0.0 mm 39.00 W/m2
07:14 11.6 °C 10.2 °C 1006.7 hPa Calm   11.3 km/h 91% 0.0 mm 51.00 W/m2
07:19 11.7 °C 10.3 °C 1006.7 hPa SSW 1.4 km/h 9.7 km/h 91% 0.0 mm 42.00 W/m2
07:24 11.7 °C 10.3 °C 1007.0 hPa SSW 3.2 km/h 11.3 km/h 91% 0.0 mm 40.00 W/m2
07:29 11.7 °C 10.3 °C 1006.7 hPa SW 1.4 km/h 8.0 km/h 91% 0.0 mm 42.00 W/m2
07:34 11.7 °C 10.3 °C 1007.0 hPa SSW 6.4 km/h 9.7 km/h 91% 0.0 mm 49.00 W/m2
07:39 11.7 °C 10.3 °C 1007.0 hPa SSW 4.7 km/h 9.7 km/h 91% 0.0 mm 40.00 W/m2
07:44 11.7 °C 10.3 °C 1007.0 hPa SSW 7.9 km/h 11.3 km/h 91% 0.0 mm 26.00 W/m2
07:49 11.7 °C 10.3 °C 1007.0 hPa SW 9.7 km/h 14.5 km/h 91% 0.0 mm 47.00 W/m2
07:54 11.7 °C 10.3 °C 1007.0 hPa WSW 6.4 km/h 11.3 km/h 91% 0.0 mm 56.00 W/m2
07:59 11.8 °C 10.4 °C 1007.0 hPa SW 6.4 km/h 11.3 km/h 91% 0.0 mm 65.00 W/m2
08:04 11.8 °C 10.4 °C 1007.0 hPa SSW 3.2 km/h 17.7 km/h 91% 0.0 mm 56.00 W/m2
08:09 11.8 °C 10.5 °C 1007.3 hPa SSW 4.7 km/h 11.3 km/h 92% 0.0 mm 67.00 W/m2
08:14 11.8 °C 10.5 °C 1007.3 hPa SW 7.9 km/h 14.5 km/h 92% 0.0 mm 69.00 W/m2
08:19 11.9 °C 10.5 °C 1007.3 hPa SSW 6.4 km/h 11.3 km/h 91% 0.0 mm 53.00 W/m2
08:24 11.9 °C 10.5 °C 1007.3 hPa SW 9.7 km/h 11.3 km/h 91% 0.0 mm 51.00 W/m2
08:29 11.9 °C 10.5 °C 1007.3 hPa SSW 4.7 km/h 16.1 km/h 91% 0.0 mm 54.00 W/m2
08:34 11.9 °C 10.5 °C 1007.3 hPa SW 6.4 km/h 11.3 km/h 91% 0.0 mm 65.00 W/m2
08:39 12.0 °C 10.6 °C 1007.3 hPa WSW 6.4 km/h 11.3 km/h 91% 0.0 mm 77.00 W/m2
08:44 12.0 °C 10.6 °C 1007.3 hPa SSW 1.4 km/h 9.7 km/h 91% 0.0 mm 79.00 W/m2
08:49 12.0 °C 10.4 °C 1007.3 hPa Calm   12.9 km/h 90% 0.0 mm 84.00 W/m2
08:54 12.0 °C 10.4 °C 1007.3 hPa SW 7.9 km/h 9.7 km/h 90% 0.0 mm 77.00 W/m2
08:59 12.0 °C 10.4 °C 1007.7 hPa SW 9.7 km/h 19.3 km/h 90% 0.0 mm 90.00 W/m2
09:04 12.1 °C 10.5 °C 1007.7 hPa SSW 6.4 km/h 12.9 km/h 90% 0.0 mm 98.00 W/m2
09:09 12.2 °C 10.6 °C 1007.7 hPa SSW 3.2 km/h 6.4 km/h 90% 0.0 mm 121.00 W/m2
09:14 12.3 °C 10.7 °C 1007.7 hPa South 7.9 km/h 12.9 km/h 90% 0.0 mm 104.00 W/m2
09:19 12.3 °C 10.7 °C 1007.7 hPa WSW 4.7 km/h 19.3 km/h 90% 0.0 mm 100.00 W/m2
09:24 12.4 °C 10.8 °C 1008.0 hPa SW 11.1 km/h 12.9 km/h 90% 0.0 mm 130.00 W/m2
09:29 12.5 °C 10.9 °C 1007.7 hPa SSW 3.2 km/h 19.3 km/h 90% 0.0 mm 171.00 W/m2
09:34 12.6 °C 10.8 °C 1007.7 hPa SW 9.7 km/h 12.9 km/h 89% 0.0 mm 207.00 W/m2
09:39 12.7 °C 10.9 °C 1008.0 hPa SSW 9.7 km/h 16.1 km/h 89% 0.0 mm 186.00 W/m2
09:44 12.8 °C 11.0 °C 1007.7 hPa SSW 4.7 km/h 12.9 km/h 89% 0.0 mm 192.00 W/m2
09:49 12.9 °C 11.1 °C 1007.7 hPa SSW 6.4 km/h 9.7 km/h 89% 0.0 mm 236.00 W/m2
09:54 13.0 °C 11.2 °C 1007.7 hPa SSW 4.7 km/h 8.0 km/h 89% 0.0 mm 213.00 W/m2
09:59 13.1 °C 11.3 °C 1007.7 hPa SW 7.9 km/h 17.7 km/h 89% 0.0 mm 229.00 W/m2
10:04 13.2 °C 11.3 °C 1008.0 hPa SW 4.7 km/h 9.7 km/h 88% 0.0 mm 292.00 W/m2
10:09 13.3 °C 11.2 °C 1008.0 hPa WSW 14.3 km/h 14.5 km/h 87% 0.0 mm 522.00 W/m2
10:14 13.5 °C 11.2 °C 1008.0 hPa WSW 14.3 km/h 17.7 km/h 86% 0.0 mm 591.00 W/m2
10:19 13.7 °C 11.2 °C 1007.7 hPa SW 11.1 km/h 19.3 km/h 85% 0.0 mm 432.00 W/m2
10:24 14.2 °C 11.5 °C 1008.0 hPa SSW 6.4 km/h 22.5 km/h 84% 0.0 mm 378.00 W/m2
10:29 14.3 °C 11.5 °C 1008.0 hPa SSW 4.7 km/h 16.1 km/h 83% 0.0 mm 329.00 W/m2
10:34 14.3 °C 11.5 °C 1008.0 hPa SSW 6.4 km/h 11.3 km/h 83% 0.0 mm 323.00 W/m2
10:39 14.1 °C 11.1 °C 1008.0 hPa SW 6.4 km/h 19.3 km/h 82% 0.0 mm 274.00 W/m2
10:44 14.0 °C 11.2 °C 1008.0 hPa SW 11.1 km/h 14.5 km/h 83% 0.0 mm 526.00 W/m2
10:49 14.2 °C 11.5 °C 1008.0 hPa SSW 3.2 km/h 12.9 km/h 84% 0.0 mm 475.00 W/m2
10:54 14.4 °C 11.4 °C 1008.0 hPa South 11.1 km/h 12.9 km/h 82% 0.0 mm 768.00 W/m2
10:59 14.6 °C 11.4 °C 1008.0 hPa SW 11.1 km/h 12.9 km/h 81% 0.0 mm 656.00 W/m2
11:04 15.0 °C 11.6 °C 1008.0 hPa South 6.4 km/h 14.5 km/h 80% 0.0 mm 304.00 W/m2
11:09 14.9 °C 11.3 °C 1008.0 hPa SW 13.0 km/h 17.7 km/h 79% 0.0 mm 176.00 W/m2
11:14 14.8 °C 11.6 °C 1008.0 hPa South 11.1 km/h 17.7 km/h 81% 0.0 mm 466.00 W/m2
11:19 14.8 °C 11.6 °C 1008.0 hPa SW 14.3 km/h 22.5 km/h 81% 0.0 mm 534.00 W/m2
11:24 14.9 °C 11.7 °C 1008.4 hPa SSW 7.9 km/h 16.1 km/h 81% 0.0 mm 411.00 W/m2
11:29 14.7 °C 11.5 °C 1008.0 hPa South 22.5 km/h 22.5 km/h 81% 0.0 mm 457.00 W/m2
11:34 14.9 °C 11.5 °C 1008.0 hPa SSW 11.1 km/h 17.7 km/h 80% 0.0 mm 283.00 W/m2
11:39 15.0 °C 11.6 °C 1008.0 hPa South 9.7 km/h 16.1 km/h 80% 0.0 mm 371.00 W/m2
11:44 15.3 °C 11.5 °C 1008.0 hPa SSW 7.9 km/h 14.5 km/h 78% 0.0 mm 417.00 W/m2
11:49 15.3 °C 11.3 °C 1008.0 hPa South 17.7 km/h 25.7 km/h 77% 0.0 mm 605.00 W/m2
11:54 15.5 °C 11.5 °C 1008.0 hPa SSW 16.3 km/h 22.5 km/h 77% 0.0 mm 432.00 W/m2
11:59 15.6 °C 11.8 °C 1008.0 hPa SW 9.7 km/h 22.5 km/h 78% 0.0 mm 494.00 W/m2
12:04 15.4 °C 11.6 °C 1008.4 hPa South 20.9 km/h 20.9 km/h 78% 0.0 mm 802.00 W/m2
12:09 15.3 °C 11.5 °C 1008.0 hPa South 9.7 km/h 27.4 km/h 78% 0.0 mm 459.00 W/m2
12:14 15.2 °C 11.4 °C 1008.0 hPa SSW 6.4 km/h 20.9 km/h 78% 0.0 mm 288.00 W/m2
12:19 15.1 °C 11.5 °C 1008.4 hPa WNW 6.4 km/h 16.1 km/h 79% 0.0 mm 225.00 W/m2
12:24 14.9 °C 11.7 °C 1008.4 hPa SSW 9.7 km/h 22.5 km/h 81% 0.0 mm 204.00 W/m2
12:29 14.6 °C 11.6 °C 1008.4 hPa SW 20.9 km/h 22.5 km/h 82% 0.0 mm 163.00 W/m2
12:34 14.2 °C 11.2 °C 1008.4 hPa SSW 13.0 km/h 30.6 km/h 82% 0.3 mm 262.00 W/m2
12:39 14.0 °C 11.3 °C 1008.4 hPa SW 7.9 km/h 12.9 km/h 84% 0.5 mm 424.00 W/m2
12:44 14.0 °C 11.3 °C 1008.4 hPa WSW 9.7 km/h 16.1 km/h 84% 0.5 mm 455.00 W/m2
12:49 14.2 °C 11.7 °C 1008.4 hPa Calm   12.9 km/h 85% 0.5 mm 587.00 W/m2
12:54 14.5 °C 12.0 °C 1008.4 hPa SW 4.7 km/h 16.1 km/h 85% 0.5 mm 309.00 W/m2
12:59 14.8 °C 11.6 °C 1008.4 hPa SW 17.7 km/h 29.0 km/h 81% 0.5 mm 257.00 W/m2
13:04 14.9 °C 11.1 °C 1008.4 hPa SW 7.9 km/h 27.4 km/h 78% 0.5 mm 309.00 W/m2
13:09 15.1 °C 11.1 °C 1008.4 hPa South 13.0 km/h 20.9 km/h 77% 0.5 mm 466.00 W/m2
13:14 15.3 °C 11.3 °C 1008.4 hPa SSE 7.9 km/h 25.7 km/h 77% 0.5 mm 448.00 W/m2
13:19 15.4 °C 11.0 °C 1008.4 hPa SSW 7.9 km/h 25.7 km/h 75% 0.5 mm 431.00 W/m2
13:24 15.3 °C 10.9 °C 1008.4 hPa SSW 20.9 km/h 24.1 km/h 75% 0.5 mm 262.00 W/m2
13:29 15.4 °C 11.0 °C 1008.4 hPa SW 9.7 km/h 24.1 km/h 75% 0.3 mm 341.00 W/m2
13:34 15.8 °C 11.6 °C 1008.4 hPa SSW 13.0 km/h 22.5 km/h 76% 0.3 mm 571.00 W/m2
13:39 15.9 °C 11.1 °C 1008.4 hPa SSW 17.7 km/h 32.2 km/h 73% 0.0 mm 485.00 W/m2
13:44 15.9 °C 11.1 °C 1008.4 hPa South 14.3 km/h 20.9 km/h 73% 0.0 mm 504.00 W/m2
13:49 15.6 °C 10.8 °C 1008.4 hPa SW 32.2 km/h 32.2 km/h 73% 0.0 mm 568.00 W/m2
13:54 15.9 °C 11.1 °C 1008.4 hPa SSW 7.9 km/h 25.7 km/h 73% 0.0 mm 441.00 W/m2
13:59 15.9 °C 10.9 °C 1008.4 hPa SW 6.4 km/h 20.9 km/h 72% 0.0 mm 420.00 W/m2
14:04 16.0 °C 11.2 °C 1008.7 hPa South 9.7 km/h 16.1 km/h 73% 0.0 mm 248.00 W/m2
14:09 15.6 °C 10.8 °C 1008.7 hPa SSW 11.1 km/h 19.3 km/h 73% 0.0 mm 717.00 W/m2
14:14 15.7 °C 11.1 °C 1008.4 hPa SSE 28.8 km/h 29.0 km/h 74% 0.0 mm 281.00 W/m2
14:19 15.5 °C 10.9 °C 1008.7 hPa SSW 13.0 km/h 22.5 km/h 74% 0.0 mm 193.00 W/m2
14:24 15.5 °C 10.7 °C 1008.7 hPa South 11.1 km/h 24.1 km/h 73% 0.0 mm 327.00 W/m2
14:29 15.4 °C 10.6 °C 1008.7 hPa SSW 4.7 km/h 22.5 km/h 73% 0.0 mm 446.00 W/m2
14:34 15.9 °C 11.3 °C 1008.7 hPa WSW 17.7 km/h 17.7 km/h 74% 0.0 mm 726.00 W/m2
14:39 16.2 °C 10.7 °C 1008.7 hPa South 30.6 km/h 32.2 km/h 70% 0.0 mm 378.00 W/m2
14:44 15.9 °C 10.4 °C 1008.7 hPa SW 22.7 km/h 25.7 km/h 70% 0.0 mm 404.00 W/m2
14:49 16.0 °C 10.5 °C 1008.7 hPa SSW 7.9 km/h 24.1 km/h 70% 0.0 mm 339.00 W/m2
14:54 15.9 °C 10.4 °C 1008.7 hPa SSW 13.0 km/h 32.2 km/h 70% 0.0 mm 425.00 W/m2
14:59 16.2 °C 10.3 °C 1008.7 hPa South 24.1 km/h 33.8 km/h 68% 0.0 mm 352.00 W/m2
15:04 16.2 °C 10.5 °C 1008.7 hPa SW 11.1 km/h 24.1 km/h 69% 0.0 mm 264.00 W/m2
15:09 16.1 °C 10.4 °C 1008.7 hPa South 7.9 km/h 29.0 km/h 69% 0.0 mm 295.00 W/m2
15:14 16.0 °C 10.1 °C 1008.7 hPa South 6.4 km/h 17.7 km/h 68% 0.0 mm 329.00 W/m2
15:19 15.9 °C 9.8 °C 1008.7 hPa SSW 7.9 km/h 30.6 km/h 67% 0.0 mm 582.00 W/m2
15:24 16.2 °C 10.1 °C 1009.0 hPa South 14.3 km/h 25.7 km/h 67% 0.0 mm 378.00 W/m2
15:29 16.1 °C 10.0 °C 1008.7 hPa South 14.3 km/h 25.7 km/h 67% 0.0 mm 374.00 W/m2
15:34 16.2 °C 10.1 °C 1008.7 hPa SSW 11.1 km/h 24.1 km/h 67% 0.0 mm 520.00 W/m2
15:39 16.5 °C 9.9 °C 1008.7 hPa South 11.1 km/h 27.4 km/h 65% 0.0 mm 1076.00 W/m2
15:44 16.4 °C 10.0 °C 1008.7 hPa SW 17.7 km/h 27.4 km/h 66% 0.0 mm 854.00 W/m2
15:49 16.4 °C 9.8 °C 1008.7 hPa South 38.6 km/h 38.6 km/h 65% 0.0 mm 779.00 W/m2
15:54 16.8 °C 10.0 °C 1008.7 hPa SSW 24.1 km/h 27.4 km/h 64% 0.0 mm 759.00 W/m2
15:59 16.5 °C 10.4 °C 1008.7 hPa SSW 25.9 km/h 29.0 km/h 67% 0.0 mm 770.00 W/m2
16:04 16.8 °C 10.6 °C 1009.0 hPa SW 38.6 km/h 38.6 km/h 67% 0.0 mm 870.00 W/m2
16:09 16.5 °C 10.8 °C 1009.0 hPa South 17.7 km/h 32.2 km/h 69% 0.0 mm 336.00 W/m2
16:14 16.3 °C 10.6 °C 1009.0 hPa SSW 6.4 km/h 29.0 km/h 69% 0.0 mm 888.00 W/m2
16:19 16.3 °C 10.6 °C 1009.0 hPa WSW 13.0 km/h 30.6 km/h 69% 0.0 mm 863.00 W/m2
16:24 16.0 °C 10.5 °C 1009.0 hPa SSW 14.3 km/h 27.4 km/h 70% 0.0 mm 761.00 W/m2
16:29 16.2 °C 10.7 °C 1009.0 hPa SW 7.9 km/h 19.3 km/h 70% 0.0 mm 192.00 W/m2
16:34 16.0 °C 10.5 °C 1009.0 hPa SSW 16.3 km/h 20.9 km/h 70% 0.0 mm 223.00 W/m2
16:39 15.7 °C 10.2 °C 1009.0 hPa WSW 17.7 km/h 27.4 km/h 70% 0.0 mm 225.00 W/m2
16:44 15.5 °C 10.3 °C 1009.0 hPa SSW 9.7 km/h 19.3 km/h 71% 0.0 mm 251.00 W/m2
16:49 15.7 °C 10.5 °C 1009.0 hPa WSW 13.0 km/h 19.3 km/h 71% 0.0 mm 250.00 W/m2
16:54 15.4 °C 10.2 °C 1009.0 hPa SW 19.5 km/h 24.1 km/h 71% 0.0 mm 773.00 W/m2
16:59 16.0 °C 10.7 °C 1009.0 hPa SSW 20.9 km/h 20.9 km/h 71% 0.0 mm 758.00 W/m2
17:04 15.8 °C 10.6 °C 1009.0 hPa SW 11.1 km/h 24.1 km/h 71% 0.0 mm 687.00 W/m2
17:09 15.6 °C 10.4 °C 1009.0 hPa South 14.3 km/h 32.2 km/h 71% 0.0 mm 306.00 W/m2
17:14 15.7 °C 10.7 °C 1009.0 hPa South 6.4 km/h 14.5 km/h 72% 0.0 mm 244.00 W/m2
17:19 15.6 °C 10.4 °C 1009.0 hPa SSW 11.1 km/h 22.5 km/h 71% 0.0 mm 338.00 W/m2
17:24 15.6 °C 10.6 °C 1009.0 hPa SW 13.0 km/h 25.7 km/h 72% 0.0 mm 645.00 W/m2
17:29 15.8 °C 10.3 °C 1009.0 hPa SSW 14.3 km/h 24.1 km/h 70% 0.0 mm 693.00 W/m2
17:34 15.7 °C 10.2 °C 1009.0 hPa SSW 20.9 km/h 30.6 km/h 70% 0.0 mm 536.00 W/m2
17:39 15.5 °C 10.3 °C 1009.0 hPa South 16.3 km/h 25.7 km/h 71% 0.0 mm 519.00 W/m2
17:44 15.6 °C 10.4 °C 1009.0 hPa South 11.1 km/h 27.4 km/h 71% 0.0 mm 503.00 W/m2
17:49 15.7 °C 10.5 °C 1009.0 hPa SSW 11.1 km/h 17.7 km/h 71% 0.0 mm 496.00 W/m2
17:54 15.4 °C 10.2 °C 1009.0 hPa SW 13.0 km/h 24.1 km/h 71% 0.0 mm 485.00 W/m2
17:59 15.3 °C 10.3 °C 1009.0 hPa SW 14.3 km/h 30.6 km/h 72% 0.0 mm 471.00 W/m2
18:04 15.4 °C 10.4 °C 1009.0 hPa SSW 17.7 km/h 22.5 km/h 72% 0.0 mm 452.00 W/m2
18:09 15.8 °C 10.8 °C 1009.0 hPa SW 11.1 km/h 17.7 km/h 72% 0.0 mm 443.00 W/m2
18:14 15.4 °C 10.4 °C 1009.0 hPa WSW 28.8 km/h 29.0 km/h 72% 0.0 mm 130.00 W/m2
18:19 15.3 °C 10.5 °C 1009.0 hPa SW 16.3 km/h 30.6 km/h 73% 0.0 mm 434.00 W/m2
18:24 15.5 °C 10.7 °C 1009.0 hPa SSW 3.2 km/h 16.1 km/h 73% 0.0 mm 403.00 W/m2
18:29 15.6 °C 10.6 °C 1009.0 hPa South 17.7 km/h 25.7 km/h 72% 0.0 mm 390.00 W/m2
18:34 15.5 °C 10.5 °C 1009.4 hPa South 9.7 km/h 27.4 km/h 72% 0.0 mm 415.00 W/m2
18:39 15.3 °C 10.3 °C 1009.4 hPa South 11.1 km/h 33.8 km/h 72% 0.0 mm 388.00 W/m2
18:44 15.1 °C 10.1 °C 1009.4 hPa SSW 7.9 km/h 27.4 km/h 72% 0.0 mm 111.00 W/m2
18:49 15.0 °C 10.0 °C 1009.7 hPa SSW 7.9 km/h 29.0 km/h 72% 0.0 mm 77.00 W/m2
18:54 15.0 °C 10.0 °C 1009.4 hPa SW 19.5 km/h 25.7 km/h 72% 0.0 mm 95.00 W/m2
18:59 15.0 °C 10.0 °C 1009.4 hPa SSW 22.7 km/h 22.5 km/h 72% 0.0 mm 294.00 W/m2
19:04 14.8 °C 9.8 °C 1009.7 hPa SW 4.7 km/h 14.5 km/h 72% 0.0 mm 62.00 W/m2
19:09 14.7 °C 9.9 °C 1009.7 hPa SW 16.3 km/h 17.7 km/h 73% 0.0 mm 72.00 W/m2
19:14 14.7 °C 9.9 °C 1009.7 hPa SSW 3.2 km/h 17.7 km/h 73% 0.0 mm 186.00 W/m2
19:19 14.8 °C 10.0 °C 1009.7 hPa SW 16.3 km/h 22.5 km/h 73% 0.0 mm 60.00 W/m2
19:23 14.6 °C 9.8 °C 1009.7 hPa SW 7.9 km/h 24.1 km/h 73% 0.0 mm 123.00 W/m2
19:29 14.7 °C 9.9 °C 1009.7 hPa WSW 6.4 km/h 12.9 km/h 73% 0.0 mm 167.00 W/m2
19:34 14.8 °C 10.0 °C 1009.7 hPa SW 6.4 km/h 14.5 km/h 73% 0.0 mm 204.00 W/m2
19:39 14.7 °C 9.9 °C 1009.7 hPa SW 9.7 km/h 16.1 km/h 73% 0.0 mm 77.00 W/m2
19:44 14.8 °C 10.2 °C 1009.7 hPa West 6.4 km/h 11.3 km/h 74% 0.0 mm 195.00 W/m2
19:49 14.8 °C 10.4 °C 1009.7 hPa West 3.2 km/h 14.5 km/h 75% 0.0 mm 151.00 W/m2
19:54 14.7 °C 10.3 °C 1009.7 hPa WNW 4.7 km/h 8.0 km/h 75% 0.0 mm 134.00 W/m2
19:59 14.6 °C 10.2 °C 1009.7 hPa WNW 3.2 km/h 9.7 km/h 75% 0.0 mm 121.00 W/m2
20:04 14.7 °C 10.3 °C 1009.7 hPa Calm   8.0 km/h 75% 0.0 mm 116.00 W/m2
20:09 14.7 °C 10.3 °C 1009.7 hPa NW 3.2 km/h 3.2 km/h 75% 0.0 mm 100.00 W/m2
20:14 14.5 °C 10.1 °C 1009.7 hPa West 4.7 km/h 9.7 km/h 75% 0.0 mm 51.00 W/m2
20:19 14.2 °C 9.6 °C 1009.7 hPa SW 4.7 km/h 12.9 km/h 74% 0.0 mm 46.00 W/m2
20:24 14.2 °C 9.6 °C 1009.7 hPa SSW 6.4 km/h 11.3 km/h 74% 0.0 mm 42.00 W/m2
20:29 14.1 °C 9.5 °C 1009.7 hPa SSW 6.4 km/h 11.3 km/h 74% 0.0 mm 25.00 W/m2
20:34 13.9 °C 9.3 °C 1010.0 hPa South 9.7 km/h 12.9 km/h 74% 0.0 mm 21.00 W/m2
20:39 13.8 °C 9.4 °C 1010.0 hPa South 7.9 km/h 11.3 km/h 75% 0.0 mm 21.00 W/m2
20:44 13.6 °C 9.3 °C 1010.0 hPa SSW 4.7 km/h 20.9 km/h 75% 0.0 mm 19.00 W/m2
20:49 13.5 °C 9.2 °C 1010.0 hPa SW 1.4 km/h 9.7 km/h 75% 0.0 mm 16.00 W/m2
20:54 13.4 °C 9.1 °C 1010.0 hPa Calm   9.7 km/h 75% 0.0 mm 14.00 W/m2
20:59 13.4 °C 9.1 °C 1010.0 hPa SSW 7.9 km/h 9.7 km/h 75% 0.0 mm 12.00 W/m2
21:03 13.3 °C 9.0 °C 1009.7 hPa Calm   3.2 km/h 75% 0.0 mm 11.00 W/m2
21:09 13.2 °C 9.1 °C 1010.0 hPa South 6.4 km/h 6.4 km/h 76% 0.0 mm 7.00 W/m2
21:14 13.1 °C 9.0 °C 1010.0 hPa South 3.2 km/h 8.0 km/h 76% 0.0 mm 7.00 W/m2
21:19 12.9 °C 8.8 °C 1010.0 hPa Calm   6.4 km/h 76% 0.0 mm 5.00 W/m2
21:24 12.8 °C 8.7 °C 1010.0 hPa SSW 3.2 km/h 8.0 km/h 76% 0.0 mm 0.00 W/m2
21:29 12.7 °C 8.6 °C 1010.0 hPa Calm   1.6 km/h 76% 0.0 mm 0.00 W/m2
21:34 12.6 °C 8.5 °C 1010.0 hPa SSW 1.4 km/h 8.0 km/h 76% 0.0 mm 0.00 W/m2
21:39 12.5 °C 8.4 °C 1010.0 hPa SSW 6.4 km/h 6.4 km/h 76% 0.0 mm 0.00 W/m2
21:44 12.4 °C 8.3 °C 1010.0 hPa SSW 3.2 km/h 3.2 km/h 76% 0.0 mm 0.00 W/m2
21:49 12.3 °C 8.2 °C 1010.0 hPa Calm     76% 0.0 mm 0.00 W/m2
21:54 12.3 °C 8.4 °C 1010.0 hPa Calm   1.6 km/h 77% 0.0 mm 0.00 W/m2
21:59 12.2 °C 8.3 °C 1010.0 hPa SSW 1.4 km/h 3.2 km/h 77% 0.0 mm 0.00 W/m2
22:04 12.2 °C 8.3 °C 1010.0 hPa Calm   1.6 km/h 77% 0.0 mm 0.00 W/m2
22:09 12.1 °C 8.2 °C 1010.4 hPa SSW 1.4 km/h 3.2 km/h 77% 0.0 mm 0.00 W/m2
22:14 11.9 °C 8.2 °C 1010.4 hPa Calm   3.2 km/h 78% 0.0 mm 0.00 W/m2
22:19 11.8 °C 8.1 °C 1010.4 hPa SSW 3.2 km/h 8.0 km/h 78% 0.0 mm 0.00 W/m2
22:24 11.7 °C 8.2 °C 1010.4 hPa South 1.4 km/h 9.7 km/h 79% 0.0 mm 0.00 W/m2
22:29 11.6 °C 8.3 °C 1010.4 hPa South 7.9 km/h 12.9 km/h 80% 0.0 mm 0.00 W/m2
22:34 11.5 °C 8.2 °C 1010.4 hPa South 4.7 km/h 11.3 km/h 80% 0.0 mm 0.00 W/m2
22:39 11.5 °C 8.4 °C 1010.4 hPa SSW 4.7 km/h 8.0 km/h 81% 0.0 mm 0.00 W/m2
22:44 11.4 °C 8.3 °C 1010.4 hPa South 11.1 km/h 11.3 km/h 81% 0.0 mm 0.00 W/m2
22:49 11.3 °C 8.3 °C 1010.4 hPa South 6.4 km/h 14.5 km/h 82% 0.0 mm 0.00 W/m2
22:54 11.3 °C 8.3 °C 1010.4 hPa South 4.7 km/h 6.4 km/h 82% 0.0 mm 0.00 W/m2
22:59 11.3 °C 8.5 °C 1010.7 hPa South 4.7 km/h 11.3 km/h 83% 0.0 mm 0.00 W/m2
23:04 11.2 °C 8.4 °C 1010.7 hPa SSW 13.0 km/h 16.1 km/h 83% 0.0 mm 0.00 W/m2
23:09 11.3 °C 8.7 °C 1010.7 hPa South 11.1 km/h 11.3 km/h 84% 0.0 mm 0.00 W/m2
23:14 11.2 °C 8.6 °C 1010.7 hPa SSE 6.4 km/h 16.1 km/h 84% 0.0 mm 0.00 W/m2
23:19 11.2 °C 8.8 °C 1010.7 hPa South 7.9 km/h 16.1 km/h 85% 0.0 mm 0.00 W/m2
23:24 11.2 °C 8.8 °C 1010.7 hPa South 11.1 km/h 19.3 km/h 85% 0.0 mm 0.00 W/m2
23:29 11.2 °C 8.8 °C 1010.7 hPa SSW 3.2 km/h 16.1 km/h 85% 0.0 mm 0.00 W/m2
23:34 11.1 °C 8.7 °C 1010.7 hPa South 7.9 km/h 11.3 km/h 85% 0.0 mm 0.00 W/m2
23:39 11.0 °C 8.7 °C 1010.7 hPa SSW 7.9 km/h 14.5 km/h 86% 0.0 mm 0.00 W/m2
23:44 11.0 °C 8.7 °C 1010.7 hPa SSW 6.4 km/h 14.5 km/h 86% 0.0 mm 0.00 W/m2
23:49 11.0 °C 8.7 °C 1010.7 hPa South 6.4 km/h 14.5 km/h 86% 0.0 mm 0.00 W/m2
23:54 11.0 °C 8.9 °C 1010.7 hPa South 4.7 km/h 11.3 km/h 87% 0.0 mm 0.00 W/m2
23:59 10.9 °C 8.8 °C 1010.7 hPa SSE 9.7 km/h 11.3 km/h 87% 0.0 mm 0.00 W/m2